Time;durP1;ratioP1;P1;durP2;ratioP2;P2;SDS_P1;SDS_P2;PMS_P1;PMS_P2;Temp;Humidity;BMP_temperature;BMP_pressure;BME280_temperature;BME280_humidity;BME280_pressure;Samples;Min_cycle;Max_cycle;Signal;HPM_P1;HPM_P2
2023/07/26 00:01:27;;;;;;;10.30;2.40;;;;;;;-128.00;-1.00;-1.00;81027;294;5550055;-35
2023/07/26 00:03:58;;;;;;;4.30;2.90;;;;;;;-128.00;-1.00;-1.00;24855;295;7504809;-36
2023/07/26 00:06:25;;;;;;;5.60;3.40;;;;;;;-128.00;-1.00;-1.00;64402;295;7504143;-34
2023/07/26 00:08:52;;;;;;;6.50;2.90;;;;;;;-128.00;-1.00;-1.00;36341;294;7505794;-36
2023/07/26 00:11:18;;;;;;;4.80;3.50;;;;;;;-128.00;-1.00;-1.00;44709;295;7504588;-35
2023/07/26 00:13:45;;;;;;;3.50;3.20;;;;;;;-128.00;-1.00;-1.00;40978;294;7204187;-34
2023/07/26 00:16:11;;;;;;;3.30;2.50;;;;;;;-128.00;-1.00;-1.00;19371;295;7504354;-37
2023/07/26 00:18:39;;;;;;;4.20;2.70;;;;;;;-128.00;-1.00;-1.00;18891;294;7504509;-34
2023/07/26 00:21:05;;;;;;;3.90;3.40;;;;;;;-128.00;-1.00;-1.00;18462;294;7504364;-36
2023/07/26 00:23:31;;;;;;;1.70;1.60;;;;;;;-128.00;-1.00;-1.00;18489;339;7504892;-36
2023/07/26 00:25:57;;;;;;;3.10;2.30;;;;;;;-128.00;-1.00;-1.00;18480;295;7504652;-37
2023/07/26 00:28:23;;;;;;;3.30;3.00;;;;;;;-128.00;-1.00;-1.00;18467;311;7506221;-35
2023/07/26 00:30:49;;;;;;;3.20;2.40;;;;;;;-128.00;-1.00;-1.00;18507;339;7504323;-34
2023/07/26 00:33:15;;;;;;;3.00;2.70;;;;;;;-128.00;-1.00;-1.00;18463;294;7505226;-36
2023/07/26 00:35:41;;;;;;;2.20;1.90;;;;;;;-128.00;-1.00;-1.00;18531;298;7506104;-34
2023/07/26 01:19:13;;;;;;;4.30;3.00;;;;;;;-99.78;19.20;19637.61;19590;295;8045467;-35
2023/07/26 01:21:39;;;;;;;4.10;3.40;;;;;;;-128.00;-1.00;-1.00;18561;295;7505200;-35
2023/07/26 01:24:05;;;;;;;6.90;4.20;;;;;;;-128.00;-1.00;-1.00;18923;294;7504443;-35
2023/07/26 01:26:32;;;;;;;5.10;2.80;;;;;;;-128.00;-1.00;-1.00;18886;294;7504469;-35
2023/07/26 01:28:58;;;;;;;3.00;2.40;;;;;;;-128.00;-1.00;-1.00;18871;294;7504906;-35
2023/07/26 01:31:24;;;;;;;6.70;2.10;;;;;;;-128.00;-1.00;-1.00;18907;294;7504682;-35
2023/07/26 01:33:52;;;;;;;4.30;2.70;;;;;;;-128.00;-1.00;-1.00;18871;294;7504252;-38
2023/07/26 01:36:22;;;;;;;2.50;2.10;;;;;;;-128.00;-1.00;-1.00;18492;294;7504940;-36
2023/07/26 01:38:48;;;;;;;4.50;2.10;;;;;;;-128.00;-1.00;-1.00;18495;294;7506251;-36
2023/07/26 01:41:15;;;;;;;4.90;2.50;;;;;;;-128.00;-1.00;-1.00;18507;294;7504569;-38
2023/07/26 01:43:41;;;;;;;1.60;1.40;;;;;;;-128.00;-1.00;-1.00;18497;294;7504974;-35
2023/07/26 01:46:11;;;;;;;4.70;2.10;;;;;;;-128.00;-1.00;-1.00;18495;294;7504308;-38
2023/07/26 01:48:37;;;;;;;3.50;2.50;;;;;;;-128.00;-1.00;-1.00;18479;294;7504543;-38
2023/07/26 01:51:03;;;;;;;4.20;1.80;;;;;;;-128.00;-1.00;-1.00;18489;318;7504893;-34
2023/07/26 01:53:29;;;;;;;2.60;1.60;;;;;;;-128.00;-1.00;-1.00;18478;294;7504681;-35
2023/07/26 01:55:55;;;;;;;4.70;2.30;;;;;;;-128.00;-1.00;-1.00;18447;294;7504079;-37
2023/07/26 01:58:20;;;;;;;4.40;3.00;;;;;;;-128.00;-1.00;-1.00;18507;294;7504964;-37
2023/07/26 02:00:46;;;;;;;5.60;2.70;;;;;;;-128.00;-1.00;-1.00;18866;294;7504176;-37
2023/07/26 02:03:13;;;;;;;4.50;2.80;;;;;;;-128.00;-1.00;-1.00;18864;295;7504666;-35
2023/07/26 02:05:45;;;;;;;4.50;3.50;;;;;;;-128.00;-1.00;-1.00;18885;294;7503849;-36
2023/07/26 02:08:11;;;;;;;1.60;1.50;;;;;;;-128.00;-1.00;-1.00;18492;294;7504658;-37
2023/07/26 02:10:38;;;;;;;11.10;1.80;;;;;;;-128.00;-1.00;-1.00;18478;306;7504460;-38
2023/07/26 02:13:04;;;;;;;3.50;1.80;;;;;;;-128.00;-1.00;-1.00;18463;294;7504381;-34
2023/07/26 02:15:31;;;;;;;3.70;2.60;;;;;;;-128.00;-1.00;-1.00;18451;294;7506032;-36
2023/07/26 02:17:57;;;;;;;1.50;1.40;;;;;;;-128.00;-1.00;-1.00;18458;294;7504354;-34
2023/07/26 02:20:23;;;;;;;3.10;2.00;;;;;;;-128.00;-1.00;-1.00;18468;283;7504933;-35
2023/07/26 02:22:49;;;;;;;3.90;2.00;;;;;;;-128.00;-1.00;-1.00;18510;294;7504411;-34
2023/07/26 02:25:15;;;;;;;2.50;2.00;;;;;;;-128.00;-1.00;-1.00;18504;294;7506013;-34
2023/07/26 02:27:40;;;;;;;2.10;1.90;;;;;;;-128.00;-1.00;-1.00;18468;295;7505930;-34
2023/07/26 02:30:07;;;;;;;1.60;1.20;;;;;;;-128.00;-1.00;-1.00;18505;346;7506741;-35
2023/07/26 02:32:33;;;;;;;4.50;1.20;;;;;;;-128.00;-1.00;-1.00;18470;299;7504464;-37
2023/07/26 02:34:58;;;;;;;2.20;2.00;;;;;;;-128.00;-1.00;-1.00;18474;294;7504970;-34
2023/07/26 02:37:25;;;;;;;3.30;2.50;;;;;;;-128.00;-1.00;-1.00;18868;294;7505553;-37
2023/07/26 02:39:51;;;;;;;4.60;2.00;;;;;;;-128.00;-1.00;-1.00;18461;346;7506285;-35
2023/07/26 02:42:17;;;;;;;3.60;2.10;;;;;;;-128.00;-1.00;-1.00;18515;294;7505777;-34
2023/07/26 02:44:45;;;;;;;3.60;2.10;;;;;;;-128.00;-1.00;-1.00;18495;330;7504940;-37
2023/07/26 02:47:10;;;;;;;5.10;2.30;;;;;;;-128.00;-1.00;-1.00;18450;295;7504460;-37
2023/07/26 02:49:36;;;;;;;4.30;2.00;;;;;;;-128.00;-1.00;-1.00;18872;346;7505000;-37
2023/07/26 02:52:03;;;;;;;3.50;2.70;;;;;;;-128.00;-1.00;-1.00;18859;294;7504377;-37
2023/07/26 02:54:28;;;;;;;3.20;1.20;;;;;;;-128.00;-1.00;-1.00;18487;294;7505963;-34
2023/07/26 02:56:54;;;;;;;1.80;1.50;;;;;;;-128.00;-1.00;-1.00;18466;295;7505827;-37
2023/07/26 02:59:20;;;;;;;4.80;3.30;;;;;;;-128.00;-1.00;-1.00;18476;294;7504905;-37
2023/07/26 03:01:46;;;;;;;4.00;1.70;;;;;;;-128.00;-1.00;-1.00;18473;335;7505742;-35
2023/07/26 03:04:12;;;;;;;1.60;0.90;;;;;;;-128.00;-1.00;-1.00;18470;310;7504627;-34
2023/07/26 03:06:40;;;;;;;2.60;2.30;;;;;;;-128.00;-1.00;-1.00;18471;294;7505952;-34
2023/07/26 03:09:05;;;;;;;1.40;1.30;;;;;;;-128.00;-1.00;-1.00;18503;294;7505859;-36
2023/07/26 03:11:31;;;;;;;1.80;1.20;;;;;;;-128.00;-1.00;-1.00;18471;343;7506056;-38
2023/07/26 03:13:58;;;;;;;3.10;1.50;;;;;;;-128.00;-1.00;-1.00;18472;295;7504461;-35
2023/07/26 03:16:23;;;;;;;4.30;1.50;;;;;;;-128.00;-1.00;-1.00;18478;319;7505055;-38
2023/07/26 03:18:49;;;;;;;3.10;2.10;;;;;;;-128.00;-1.00;-1.00;18510;295;7506504;-35
2023/07/26 03:21:15;;;;;;;3.10;1.40;;;;;;;-128.00;-1.00;-1.00;18472;295;7504960;-35
2023/07/26 03:23:40;;;;;;;6.20;3.60;;;;;;;-128.00;-1.00;-1.00;18501;346;7506077;-35
2023/07/26 03:26:06;;;;;;;3.30;2.70;;;;;;;-128.00;-1.00;-1.00;18460;295;7504795;-38
2023/07/26 03:28:32;;;;;;;7.50;2.10;;;;;;;-128.00;-1.00;-1.00;18469;347;7506312;-37
2023/07/26 03:31:00;;;;;;;2.90;2.70;;;;;;;-128.00;-1.00;-1.00;18474;347;7504788;-38
2023/07/26 03:33:26;;;;;;;2.20;2.00;;;;;;;-128.00;-1.00;-1.00;18489;294;7504467;-36
2023/07/26 03:35:52;;;;;;;2.50;2.20;;;;;;;-128.00;-1.00;-1.00;18508;294;7505135;-37
2023/07/26 03:38:17;;;;;;;2.70;2.50;;;;;;;-128.00;-1.00;-1.00;18462;294;7504423;-34
2023/07/26 03:40:43;;;;;;;2.50;2.20;;;;;;;-128.00;-1.00;-1.00;18459;346;7504509;-37
2023/07/26 03:43:09;;;;;;;5.20;3.00;;;;;;;-128.00;-1.00;-1.00;18875;294;7504356;-37
2023/07/26 03:45:35;;;;;;;2.90;2.70;;;;;;;-128.00;-1.00;-1.00;18886;294;7504397;-37
2023/07/26 03:48:02;;;;;;;2.40;1.70;;;;;;;-128.00;-1.00;-1.00;18887;294;7504155;-38
2023/07/26 03:50:28;;;;;;;5.00;3.10;;;;;;;-128.00;-1.00;-1.00;18863;294;7504998;-37
2023/07/26 03:52:54;;;;;;;4.20;2.70;;;;;;;-128.00;-1.00;-1.00;18493;294;7504343;-38
2023/07/26 03:55:20;;;;;;;2.40;1.90;;;;;;;-128.00;-1.00;-1.00;18873;318;7504661;-38
2023/07/26 03:57:47;;;;;;;2.20;1.70;;;;;;;-128.00;-1.00;-1.00;18897;294;7504379;-35
2023/07/26 04:00:13;;;;;;;2.00;1.80;;;;;;;-128.00;-1.00;-1.00;18445;295;7504503;-37
2023/07/26 04:02:38;;;;;;;1.60;1.40;;;;;;;-128.00;-1.00;-1.00;18478;295;7504688;-35
2023/07/26 04:05:05;;;;;;;1.20;1.10;;;;;;;-128.00;-1.00;-1.00;18508;295;7506456;-37
2023/07/26 04:07:31;;;;;;;2.50;2.00;;;;;;;-128.00;-1.00;-1.00;18512;302;7506079;-34
2023/07/26 04:10:00;;;;;;;4.20;2.90;;;;;;;-128.00;-1.00;-1.00;18868;295;7505110;-34
2023/07/26 04:12:26;;;;;;;4.10;2.40;;;;;;;-128.00;-1.00;-1.00;18476;283;7504286;-34
2023/07/26 04:14:51;;;;;;;3.60;2.50;;;;;;;-128.00;-1.00;-1.00;18506;310;7504335;-37
2023/07/26 04:17:17;;;;;;;3.70;2.60;;;;;;;-128.00;-1.00;-1.00;18909;294;7505112;-37
2023/07/26 04:19:44;;;;;;;2.50;2.00;;;;;;;-128.00;-1.00;-1.00;18882;302;7504117;-37
2023/07/26 04:22:10;;;;;;;5.10;3.40;;;;;;;-128.00;-1.00;-1.00;18872;294;7505297;-34
2023/07/26 04:24:41;;;;;;;4.10;2.50;;;;;;;-128.00;-1.00;-1.00;18831;294;7504360;-36
2023/07/26 04:27:07;;;;;;;4.00;2.60;;;;;;;-128.00;-1.00;-1.00;18500;294;7504745;-37
2023/07/26 04:29:33;;;;;;;3.80;2.30;;;;;;;-128.00;-1.00;-1.00;18496;283;7505910;-35
2023/07/26 04:31:58;;;;;;;2.70;2.30;;;;;;;-128.00;-1.00;-1.00;18481;347;7504788;-35
2023/07/26 04:34:25;;;;;;;2.80;2.00;;;;;;;-128.00;-1.00;-1.00;18906;347;7504755;-38
2023/07/26 04:36:51;;;;;;;5.30;3.40;;;;;;;-128.00;-1.00;-1.00;18877;294;7504745;-36
2023/07/26 04:39:17;;;;;;;5.60;2.30;;;;;;;-128.00;-1.00;-1.00;18892;294;7504613;-37
2023/07/26 04:41:43;;;;;;;3.00;2.70;;;;;;;-128.00;-1.00;-1.00;18895;294;7504407;-37
2023/07/26 04:44:10;;;;;;;5.10;2.80;;;;;;;-128.00;-1.00;-1.00;18873;295;7504431;-35
2023/07/26 04:46:36;;;;;;;4.60;2.40;;;;;;;-128.00;-1.00;-1.00;18857;307;7505250;-37
2023/07/26 04:49:02;;;;;;;15.40;3.10;;;;;;;-128.00;-1.00;-1.00;18894;294;7504425;-37
2023/07/26 04:51:29;;;;;;;3.90;3.50;;;;;;;-128.00;-1.00;-1.00;18904;295;7504773;-36
2023/07/26 04:53:55;;;;;;;2.10;1.40;;;;;;;-128.00;-1.00;-1.00;18452;295;7506064;-34
2023/07/26 04:56:25;;;;;;;3.70;3.30;;;;;;;-128.00;-1.00;-1.00;18875;295;7505882;-38
2023/07/26 04:58:51;;;;;;;2.60;2.40;;;;;;;-128.00;-1.00;-1.00;18507;295;7506193;-38
2023/07/26 05:01:17;;;;;;;24.20;3.20;;;;;;;-128.00;-1.00;-1.00;18477;295;7505552;-38
2023/07/26 05:03:43;;;;;;;3.20;2.30;;;;;;;-128.00;-1.00;-1.00;18504;295;7505629;-35
2023/07/26 05:06:10;;;;;;;2.00;1.40;;;;;;;-128.00;-1.00;-1.00;18480;310;7505939;-38
2023/07/26 05:08:36;;;;;;;5.90;2.80;;;;;;;-128.00;-1.00;-1.00;18482;295;7505221;-35
2023/07/26 05:11:01;;;;;;;3.50;3.10;;;;;;;-128.00;-1.00;-1.00;18516;295;7505598;-35
2023/07/26 05:13:27;;;;;;;2.60;2.10;;;;;;;-128.00;-1.00;-1.00;18469;295;7505789;-37
2023/07/26 05:15:53;;;;;;;2.60;2.00;;;;;;;-128.00;-1.00;-1.00;18466;346;7504451;-38
2023/07/26 05:18:19;;;;;;;3.50;1.50;;;;;;;-128.00;-1.00;-1.00;18493;295;7504937;-34
2023/07/26 05:20:44;;;;;;;2.10;1.90;;;;;;;-128.00;-1.00;-1.00;18441;295;7507663;-37
2023/07/26 05:23:10;;;;;;;4.80;2.90;;;;;;;-128.00;-1.00;-1.00;18490;295;7504684;-34
2023/07/26 05:25:39;;;;;;;2.00;1.60;;;;;;;-128.00;-1.00;-1.00;18481;295;7504762;-34
2023/07/26 05:28:05;;;;;;;2.60;2.10;;;;;;;-128.00;-1.00;-1.00;18478;288;7506214;-38
2023/07/26 05:30:30;;;;;;;3.80;2.30;;;;;;;-128.00;-1.00;-1.00;18466;340;7506016;-37
2023/07/26 05:32:57;;;;;;;2.60;2.00;;;;;;;-128.00;-1.00;-1.00;18891;295;7505051;-37
2023/07/26 05:35:23;;;;;;;2.80;2.30;;;;;;;-128.00;-1.00;-1.00;18886;295;7505092;-37
2023/07/26 05:37:50;;;;;;;6.20;3.20;;;;;;;-128.00;-1.00;-1.00;18883;295;7505722;-38
2023/07/26 05:40:16;;;;;;;4.90;3.70;;;;;;;-128.00;-1.00;-1.00;18489;295;7504505;-35
2023/07/26 05:42:42;;;;;;;2.70;1.40;;;;;;;-128.00;-1.00;-1.00;18472;295;7505332;-38
2023/07/26 05:45:08;;;;;;;2.10;1.80;;;;;;;-128.00;-1.00;-1.00;18468;302;7504451;-38
2023/07/26 05:47:38;;;;;;;3.00;2.00;;;;;;;-128.00;-1.00;-1.00;18475;295;7504667;-38
2023/07/26 05:50:06;;;;;;;3.40;2.60;;;;;;;-128.00;-1.00;-1.00;18507;306;7506045;-35
2023/07/26 05:52:32;;;;;;;1.60;1.10;;;;;;;-128.00;-1.00;-1.00;18497;288;7505055;-36
2023/07/26 05:54:58;;;;;;;4.00;2.00;;;;;;;-128.00;-1.00;-1.00;18471;346;7505990;-38
2023/07/26 05:57:23;;;;;;;3.50;1.70;;;;;;;-128.00;-1.00;-1.00;18515;339;7506449;-38
2023/07/26 05:59:49;;;;;;;1.90;1.50;;;;;;;-128.00;-1.00;-1.00;18489;294;7504443;-38
2023/07/26 06:02:15;;;;;;;1.40;1.00;;;;;;;-128.00;-1.00;-1.00;18482;294;7504522;-36
2023/07/26 06:04:41;;;;;;;9.50;2.40;;;;;;;-128.00;-1.00;-1.00;18472;339;7504328;-37
2023/07/26 06:07:07;;;;;;;5.10;1.70;;;;;;;-128.00;-1.00;-1.00;18469;318;7504613;-37
2023/07/26 06:09:33;;;;;;;3.00;1.60;;;;;;;-128.00;-1.00;-1.00;18496;322;7505893;-37
2023/07/26 06:11:59;;;;;;;2.10;1.20;;;;;;;-128.00;-1.00;-1.00;18466;295;7504484;-37
2023/07/26 06:14:25;;;;;;;4.40;0.90;;;;;;;-128.00;-1.00;-1.00;18440;294;7504485;-37
2023/07/26 06:16:51;;;;;;;2.80;1.80;;;;;;;-128.00;-1.00;-1.00;18467;295;7504546;-37
2023/07/26 06:19:17;;;;;;;1.20;0.90;;;;;;;-128.00;-1.00;-1.00;18470;319;7506021;-37
2023/07/26 06:21:43;;;;;;;2.40;1.40;;;;;;;-128.00;-1.00;-1.00;18472;295;7506634;-36
2023/07/26 06:24:08;;;;;;;2.50;1.00;;;;;;;-128.00;-1.00;-1.00;18473;295;7504934;-35
2023/07/26 06:26:35;;;;;;;1.80;1.10;;;;;;;-128.00;-1.00;-1.00;18882;287;7505449;-36
2023/07/26 06:29:01;;;;;;;6.70;1.50;;;;;;;-128.00;-1.00;-1.00;18836;302;7504101;-34
2023/07/26 06:31:27;;;;;;;4.30;1.30;;;;;;;-128.00;-1.00;-1.00;18908;294;7504997;-34
2023/07/26 06:33:53;;;;;;;1.10;1.00;;;;;;;-128.00;-1.00;-1.00;18878;295;7505506;-38
2023/07/26 06:36:19;;;;;;;2.00;1.00;;;;;;;-128.00;-1.00;-1.00;18867;339;7504195;-34
2023/07/26 06:38:45;;;;;;;2.40;1.00;;;;;;;-128.00;-1.00;-1.00;18886;294;7504157;-38
2023/07/26 06:41:12;;;;;;;1.50;0.90;;;;;;;-128.00;-1.00;-1.00;18492;294;7504662;-37
2023/07/26 06:43:38;;;;;;;8.80;1.20;;;;;;;-128.00;-1.00;-1.00;18463;295;7504129;-34
2023/07/26 06:46:04;;;;;;;1.50;1.10;;;;;;;-128.00;-1.00;-1.00;18871;295;7504274;-34
2023/07/26 06:48:30;;;;;;;3.30;2.80;;;;;;;-128.00;-1.00;-1.00;18870;295;7504600;-37
2023/07/26 06:50:56;;;;;;;1.30;0.60;;;;;;;-128.00;-1.00;-1.00;18856;295;7505034;-38
2023/07/26 06:53:22;;;;;;;3.20;0.90;;;;;;;-128.00;-1.00;-1.00;18882;295;7505497;-35
2023/07/26 06:55:49;;;;;;;3.40;1.70;;;;;;;-128.00;-1.00;-1.00;18886;295;7505460;-37
2023/07/26 06:58:15;;;;;;;1.90;0.80;;;;;;;-128.00;-1.00;-1.00;18936;295;7504566;-37
2023/07/26 07:00:41;;;;;;;1.50;1.10;;;;;;;-128.00;-1.00;-1.00;18874;295;7504101;-38
2023/07/26 07:03:07;;;;;;;9.10;1.00;;;;;;;-128.00;-1.00;-1.00;18862;347;7504383;-38
2023/07/26 07:05:35;;;;;;;1.90;1.10;;;;;;;-128.00;-1.00;-1.00;18854;339;7505081;-38
2023/07/26 07:08:01;;;;;;;1.00;0.70;;;;;;;-128.00;-1.00;-1.00;18476;307;7506238;-38
2023/07/26 07:10:26;;;;;;;0.80;0.70;;;;;;;-128.00;-1.00;-1.00;18463;295;7505337;-35
2023/07/26 07:12:52;;;;;;;1.00;0.60;;;;;;;-128.00;-1.00;-1.00;18478;294;7506510;-37
2023/07/26 07:15:19;;;;;;;2.20;1.00;;;;;;;-128.00;-1.00;-1.00;18898;295;7504709;-35
2023/07/26 07:17:45;;;;;;;1.50;1.00;;;;;;;-128.00;-1.00;-1.00;18857;295;7505190;-38
2023/07/26 07:20:11;;;;;;;2.10;1.40;;;;;;;-128.00;-1.00;-1.00;18895;294;7504369;-37
2023/07/26 07:22:37;;;;;;;1.70;0.60;;;;;;;-128.00;-1.00;-1.00;18862;294;7504894;-37
2023/07/26 07:25:05;;;;;;;1.40;0.70;;;;;;;-128.00;-1.00;-1.00;18895;306;7505093;-34
2023/07/26 07:27:30;;;;;;;4.20;1.00;;;;;;;-128.00;-1.00;-1.00;18484;343;7504679;-34
2023/07/26 07:29:56;;;;;;;0.60;0.50;;;;;;;-128.00;-1.00;-1.00;18483;306;7504246;-35
2023/07/26 07:32:22;;;;;;;0.70;0.50;;;;;;;-128.00;-1.00;-1.00;18452;319;7504258;-37
2023/07/26 07:34:48;;;;;;;0.90;0.60;;;;;;;-128.00;-1.00;-1.00;18462;335;7504590;-35
2023/07/26 07:37:14;;;;;;;1.30;0.80;;;;;;;-128.00;-1.00;-1.00;18445;326;7505041;-37
2023/07/26 07:39:39;;;;;;;2.20;0.70;;;;;;;-128.00;-1.00;-1.00;18495;294;7506246;-36
2023/07/26 07:42:06;;;;;;;5.30;1.10;;;;;;;-128.00;-1.00;-1.00;18889;295;7504688;-34
2023/07/26 07:44:32;;;;;;;1.30;0.90;;;;;;;-128.00;-1.00;-1.00;18875;294;7505160;-36
2023/07/26 07:46:58;;;;;;;1.70;0.40;;;;;;;-128.00;-1.00;-1.00;18456;294;7504863;-37
2023/07/26 07:49:24;;;;;;;0.90;0.80;;;;;;;-128.00;-1.00;-1.00;18865;294;7504173;-36
2023/07/26 07:51:50;;;;;;;0.90;0.80;;;;;;;-128.00;-1.00;-1.00;18851;294;7505122;-35
2023/07/26 07:54:16;;;;;;;2.70;1.00;;;;;;;-128.00;-1.00;-1.00;18856;295;7505261;-36
2023/07/26 07:56:43;;;;;;;1.90;0.90;;;;;;;-128.00;-1.00;-1.00;18865;295;7505724;-37
2023/07/26 07:59:09;;;;;;;4.80;0.90;;;;;;;-128.00;-1.00;-1.00;18873;294;7504726;-37
2023/07/26 08:01:35;;;;;;;1.10;0.70;;;;;;;-128.00;-1.00;-1.00;18839;335;7505066;-36
2023/07/26 08:04:02;;;;;;;2.30;1.10;;;;;;;-128.00;-1.00;-1.00;18856;295;7504335;-38
2023/07/26 08:06:28;;;;;;;1.40;1.10;;;;;;;-128.00;-1.00;-1.00;18477;294;7504842;-37
2023/07/26 08:08:54;;;;;;;8.60;1.10;;;;;;;-128.00;-1.00;-1.00;18472;294;7506138;-35
2023/07/26 08:11:20;;;;;;;1.50;0.80;;;;;;;-128.00;-1.00;-1.00;18879;294;7504538;-37
2023/07/26 08:13:52;;;;;;;1.20;0.90;;;;;;;-128.00;-1.00;-1.00;18510;335;7504334;-36
2023/07/26 08:16:19;;;;;;;1.00;0.90;;;;;;;-128.00;-1.00;-1.00;18887;288;7504729;-38
2023/07/26 08:18:45;;;;;;;0.70;0.60;;;;;;;-128.00;-1.00;-1.00;18848;346;7505193;-36
2023/07/26 08:21:12;;;;;;;1.40;0.80;;;;;;;-128.00;-1.00;-1.00;18489;318;7504272;-38
2023/07/26 08:23:39;;;;;;;6.50;0.80;;;;;;;-128.00;-1.00;-1.00;18480;335;7504804;-39
2023/07/26 08:26:06;;;;;;;1.10;1.00;;;;;;;-128.00;-1.00;-1.00;18473;307;7506077;-36
2023/07/26 08:28:32;;;;;;;2.70;1.80;;;;;;;-128.00;-1.00;-1.00;18499;294;7505776;-35
2023/07/26 08:30:58;;;;;;;2.00;1.40;;;;;;;-128.00;-1.00;-1.00;18466;294;7504599;-38
2023/07/26 08:33:24;;;;;;;3.10;1.30;;;;;;;-128.00;-1.00;-1.00;18429;330;7504967;-36
2023/07/26 08:35:49;;;;;;;1.60;0.90;;;;;;;-128.00;-1.00;-1.00;18458;306;7505711;-38
2023/07/26 08:38:15;;;;;;;2.60;1.30;;;;;;;-128.00;-1.00;-1.00;18477;302;7505117;-39
2023/07/26 08:40:46;;;;;;;1.00;0.70;;;;;;;-128.00;-1.00;-1.00;18486;294;7506057;-35
2023/07/26 08:43:13;;;;;;;2.30;1.30;;;;;;;-128.00;-1.00;-1.00;18473;295;7506749;-36
2023/07/26 08:45:40;;;;;;;1.70;1.20;;;;;;;-128.00;-1.00;-1.00;18469;294;7504496;-38
2023/07/26 08:48:07;;;;;;;2.30;1.00;;;;;;;-128.00;-1.00;-1.00;18450;287;7504879;-35
2023/07/26 08:50:34;;;;;;;0.50;0.50;;;;;;;-128.00;-1.00;-1.00;18449;296;7505687;-35
2023/07/26 08:53:00;;;;;;;6.70;1.30;;;;;;;-128.00;-1.00;-1.00;18494;295;7506219;-37
2023/07/26 08:55:26;;;;;;;5.00;1.60;;;;;;;-128.00;-1.00;-1.00;18469;339;7505418;-37
2023/07/26 08:57:52;;;;;;;7.10;0.80;;;;;;;-128.00;-1.00;-1.00;18480;295;7504420;-36
2023/07/26 09:00:18;;;;;;;0.30;0.30;;;;;;;-128.00;-1.00;-1.00;18476;318;7505852;-35
2023/07/26 09:02:45;;;;;;;5.40;0.70;;;;;;;-128.00;-1.00;-1.00;18466;318;7506462;-37
2023/07/26 09:05:11;;;;;;;1.00;0.90;;;;;;;-128.00;-1.00;-1.00;18486;295;7505085;-35
2023/07/26 09:07:37;;;;;;;1.30;0.70;;;;;;;-128.00;-1.00;-1.00;18456;295;7504722;-35
2023/07/26 09:10:03;;;;;;;6.40;1.00;;;;;;;-128.00;-1.00;-1.00;18456;346;7506345;-37
2023/07/26 09:12:28;;;;;;;1.90;0.90;;;;;;;-128.00;-1.00;-1.00;18493;310;7504439;-35
2023/07/26 09:14:58;;;;;;;0.90;0.80;;;;;;;-128.00;-1.00;-1.00;18474;295;7504656;-35
2023/07/26 09:17:39;;;;;;;1.30;1.20;;;;;;;-128.00;-1.00;-1.00;18475;336;7506304;-35
2023/07/26 09:20:17;;;;;;;0.60;0.40;;;;;;;-128.00;-1.00;-1.00;18484;318;7505044;-35
2023/07/26 09:22:42;;;;;;;6.90;0.90;;;;;;;-128.00;-1.00;-1.00;18152;294;7505354;-36
2023/07/26 09:25:08;;;;;;;2.00;0.80;;;;;;;-128.00;-1.00;-1.00;18453;295;7506198;-35
2023/07/26 09:27:34;;;;;;;11.50;0.90;;;;;;;-128.00;-1.00;-1.00;18462;295;7504990;-36
2023/07/26 09:30:00;;;;;;;4.70;0.90;;;;;;;-128.00;-1.00;-1.00;18872;289;7504574;-36
2023/07/26 09:32:28;;;;;;;3.20;1.10;;;;;;;-128.00;-1.00;-1.00;18869;295;7504088;-35
2023/07/26 09:34:54;;;;;;;2.00;1.00;;;;;;;-128.00;-1.00;-1.00;18438;346;7505993;-38
2023/07/26 09:37:23;;;;;;;2.50;1.50;;;;;;;-128.00;-1.00;-1.00;18477;335;7505533;-37
2023/07/26 09:39:48;;;;;;;3.60;1.60;;;;;;;-128.00;-1.00;-1.00;18461;294;7504706;-37
2023/07/26 09:42:14;;;;;;;1.70;0.90;;;;;;;-128.00;-1.00;-1.00;18496;294;7506067;-37
2023/07/26 09:44:41;;;;;;;3.20;1.00;;;;;;;-128.00;-1.00;-1.00;18870;287;7504705;-36
2023/07/26 09:47:07;;;;;;;0.90;0.60;;;;;;;-128.00;-1.00;-1.00;18466;308;7504158;-36
2023/07/26 09:49:33;;;;;;;2.40;1.10;;;;;;;-128.00;-1.00;-1.00;18875;295;7505772;-37
2023/07/26 09:52:01;;;;;;;1.10;0.60;;;;;;;-128.00;-1.00;-1.00;18465;339;7504635;-36
2023/07/26 09:54:28;;;;;;;0.80;0.70;;;;;;;-128.00;-1.00;-1.00;18494;295;7506022;-34
2023/07/26 09:56:54;;;;;;;3.00;0.70;;;;;;;-128.00;-1.00;-1.00;18460;295;7505664;-38
2023/07/26 09:59:20;;;;;;;3.10;0.80;;;;;;;-128.00;-1.00;-1.00;18490;294;7506080;-36
2023/07/26 10:01:46;;;;;;;1.50;1.10;;;;;;;-128.00;-1.00;-1.00;18896;294;7504542;-36
2023/07/26 10:04:15;;;;;;;2.60;1.20;;;;;;;-128.00;-1.00;-1.00;18869;294;7504951;-37
2023/07/26 10:06:41;;;;;;;1.80;1.10;;;;;;;-128.00;-1.00;-1.00;18488;295;7504630;-42
2023/07/26 10:09:10;;;;;;;3.10;0.80;;;;;;;-128.00;-1.00;-1.00;18487;295;7505110;-41
2023/07/26 10:11:36;;;;;;;1.60;1.10;;;;;;;-128.00;-1.00;-1.00;18476;310;7505026;-37
2023/07/26 10:14:01;;;;;;;2.80;1.60;;;;;;;-128.00;-1.00;-1.00;18487;336;7505930;-38
2023/07/26 10:16:28;;;;;;;2.50;1.70;;;;;;;-128.00;-1.00;-1.00;18890;294;7504955;-41
2023/07/26 10:18:54;;;;;;;1.30;1.00;;;;;;;-128.00;-1.00;-1.00;18896;294;7504303;-38
2023/07/26 10:21:20;;;;;;;2.70;1.20;;;;;;;-128.00;-1.00;-1.00;18884;287;7504977;-38
2023/07/26 10:23:47;;;;;;;4.40;1.20;;;;;;;-128.00;-1.00;-1.00;18877;294;7505245;-38
2023/07/26 10:26:13;;;;;;;2.00;1.30;;;;;;;-128.00;-1.00;-1.00;18837;318;7505579;-37
2023/07/26 10:28:39;;;;;;;5.00;1.40;;;;;;;-128.00;-1.00;-1.00;18902;296;7504721;-37
2023/07/26 10:31:05;;;;;;;5.50;1.20;;;;;;;-128.00;-1.00;-1.00;18882;295;7504402;-37
2023/07/26 10:33:32;;;;;;;1.60;0.90;;;;;;;-128.00;-1.00;-1.00;18866;294;7504637;-37
2023/07/26 10:35:58;;;;;;;8.10;1.30;;;;;;;-128.00;-1.00;-1.00;18450;294;7506529;-36
2023/07/26 10:38:24;;;;;;;2.10;1.10;;;;;;;-128.00;-1.00;-1.00;18499;294;7504217;-36
2023/07/26 10:40:50;;;;;;;0.60;0.60;;;;;;;-128.00;-1.00;-1.00;18472;294;7505729;-35
2023/07/26 10:43:39;;;;;;;1.20;0.90;;;;;;;-128.00;-1.00;-1.00;18488;294;7504952;-38
2023/07/26 10:46:10;;;;;;;3.30;1.30;;;;;;;-128.00;-1.00;-1.00;18521;294;7504379;-34
2023/07/26 10:48:38;;;;;;;2.90;0.80;;;;;;;-128.00;-1.00;-1.00;18470;295;7506325;-35
2023/07/26 10:51:28;;;;;;;2.90;1.30;;;;;;;-128.00;-1.00;-1.00;18476;336;7505989;-34
2023/07/26 10:53:54;;;;;;;4.70;0.80;;;;;;;-128.00;-1.00;-1.00;18466;295;7506429;-34
2023/07/26 10:56:23;;;;;;;2.40;1.40;;;;;;;-128.00;-1.00;-1.00;18476;295;7506352;-37
2023/07/26 10:58:56;;;;;;;1.20;1.10;;;;;;;-128.00;-1.00;-1.00;18451;295;7504366;-34
2023/07/26 11:01:39;;;;;;;3.00;1.30;;;;;;;-128.00;-1.00;-1.00;18478;294;7505271;-34
2023/07/26 11:04:10;;;;;;;1.90;1.30;;;;;;;-128.00;-1.00;-1.00;18495;294;7504680;-38
2023/07/26 11:06:53;;;;;;;2.30;1.00;;;;;;;-128.00;-1.00;-1.00;18513;295;7506222;-34
2023/07/26 11:09:21;;;;;;;1.70;1.20;;;;;;;-128.00;-1.00;-1.00;18460;294;7504663;-32
2023/07/26 11:12:00;;;;;;;2.10;1.30;;;;;;;-128.00;-1.00;-1.00;18459;335;7504740;-34
2023/07/26 11:14:28;;;;;;;3.90;1.20;;;;;;;-128.00;-1.00;-1.00;18474;295;7504894;-34
2023/07/26 11:16:54;;;;;;;4.90;0.90;;;;;;;-128.00;-1.00;-1.00;18480;294;7504840;-35
2023/07/26 11:19:20;;;;;;;1.60;0.40;;;;;;;-128.00;-1.00;-1.00;18454;296;7505994;-34
2023/07/26 11:21:46;;;;;;;3.50;1.30;;;;;;;-128.00;-1.00;-1.00;18485;294;7504823;-32
2023/07/26 11:24:12;;;;;;;7.80;1.30;;;;;;;-128.00;-1.00;-1.00;18900;294;7504346;-37
2023/07/26 11:26:45;;;;;;;4.40;0.70;;;;;;;-128.00;-1.00;-1.00;18906;294;7505079;-36
2023/07/26 11:29:11;;;;;;;1.50;1.20;;;;;;;-128.00;-1.00;-1.00;18490;319;7504450;-36
2023/07/26 11:31:37;;;;;;;2.70;1.40;;;;;;;-128.00;-1.00;-1.00;18477;295;7506066;-33
2023/07/26 11:34:15;;;;;;;1.60;1.10;;;;;;;-128.00;-1.00;-1.00;18479;294;7506736;-33
2023/07/26 11:36:41;;;;;;;3.20;1.40;;;;;;;-128.00;-1.00;-1.00;18478;335;7504591;-36
2023/07/26 11:39:07;;;;;;;4.00;1.10;;;;;;;-128.00;-1.00;-1.00;18468;294;7507303;-36
2023/07/26 11:41:33;;;;;;;1.60;1.20;;;;;;;-128.00;-1.00;-1.00;18470;339;7504497;-32
2023/07/26 11:43:59;;;;;;;2.20;1.00;;;;;;;-128.00;-1.00;-1.00;18892;288;7504499;-33
2023/07/26 11:46:27;;;;;;;3.10;1.20;;;;;;;-128.00;-1.00;-1.00;18874;294;7505584;-32
2023/07/26 11:48:53;;;;;;;4.00;1.20;;;;;;;-128.00;-1.00;-1.00;18438;294;7506279;-36
2023/07/26 11:51:20;;;;;;;7.30;1.50;;;;;;;-128.00;-1.00;-1.00;18478;347;7506177;-32
2023/07/26 11:53:47;;;;;;;3.00;1.10;;;;;;;-128.00;-1.00;-1.00;18478;295;7504944;-36
2023/07/26 11:56:13;;;;;;;3.50;1.20;;;;;;;-128.00;-1.00;-1.00;18482;295;7505023;-33
2023/07/26 11:58:40;;;;;;;1.00;0.80;;;;;;;-128.00;-1.00;-1.00;18477;294;7505194;-36
2023/07/26 12:01:06;;;;;;;1.30;1.20;;;;;;;-128.00;-1.00;-1.00;18504;294;7504747;-33
2023/07/26 12:03:32;;;;;;;4.30;1.30;;;;;;;-128.00;-1.00;-1.00;18483;294;7504535;-36
2023/07/26 12:05:57;;;;;;;1.90;0.80;;;;;;;-128.00;-1.00;-1.00;18489;339;7506778;-33
2023/07/26 12:08:23;;;;;;;3.40;1.20;;;;;;;-128.00;-1.00;-1.00;18483;295;7504615;-36
2023/07/26 12:10:49;;;;;;;0.80;0.80;;;;;;;-128.00;-1.00;-1.00;18482;295;7504336;-33
2023/07/26 12:13:20;;;;;;;2.50;1.40;;;;;;;-128.00;-1.00;-1.00;18873;346;7504300;-33